createdAt,value
2017-05-26T00:01:41.452Z,12.40
2017-05-26T00:04:08.419Z,12.40
2017-05-26T00:06:35.352Z,12.30
2017-05-26T00:09:02.333Z,12.30
2017-05-26T00:11:29.322Z,12.20
2017-05-26T00:13:56.257Z,12.20
2017-05-26T00:16:23.180Z,12.10
2017-05-26T00:18:50.170Z,12.00
2017-05-26T00:21:17.108Z,12.00
2017-05-26T00:23:44.039Z,11.90
2017-05-26T00:26:10.992Z,11.80
2017-05-26T00:28:37.974Z,11.80
2017-05-26T00:31:04.904Z,11.80
2017-05-26T00:33:31.835Z,11.90
2017-05-26T00:35:58.829Z,11.90
2017-05-26T00:38:25.829Z,11.80
2017-05-26T00:40:52.763Z,11.80
2017-05-26T00:43:19.742Z,11.70
2017-05-26T00:45:46.675Z,11.70
2017-05-26T00:48:13.590Z,11.60
2017-05-26T00:50:40.569Z,11.50
2017-05-26T00:53:07.497Z,11.50
2017-05-26T00:55:34.429Z,11.50
2017-05-26T00:58:01.411Z,11.50
2017-05-26T01:00:28.417Z,11.60
2017-05-26T01:02:55.360Z,11.60
2017-05-26T01:05:22.323Z,11.50
2017-05-26T01:07:49.244Z,11.40
2017-05-26T01:10:16.168Z,11.40
2017-05-26T01:12:43.118Z,11.50
2017-05-26T01:15:10.069Z,11.50
2017-05-26T01:17:37.025Z,11.50
2017-05-26T01:20:03.997Z,11.60
2017-05-26T01:22:30.920Z,11.60
2017-05-26T01:24:57.851Z,11.70
2017-05-26T01:27:24.829Z,11.60
2017-05-26T01:29:51.764Z,11.50
2017-05-26T01:32:18.711Z,11.50
2017-05-26T01:34:45.667Z,11.50
2017-05-26T01:37:12.667Z,11.40
2017-05-26T01:39:39.651Z,11.40
2017-05-26T01:42:06.621Z,11.40
2017-05-26T01:44:32.818Z,11.40
2017-05-26T01:46:59.764Z,11.40
2017-05-26T01:49:26.800Z,11.50
2017-05-26T01:51:54.804Z,11.50
2017-05-26T01:54:21.781Z,11.50
2017-05-26T01:56:48.812Z,11.50
2017-05-26T01:59:15.825Z,11.50
2017-05-26T02:01:42.786Z,11.50
2017-05-26T02:04:09.708Z,11.60
2017-05-26T02:06:36.658Z,11.50
2017-05-26T02:09:03.693Z,11.50
2017-05-26T02:11:30.620Z,11.50
2017-05-26T02:13:57.557Z,11.40
2017-05-26T02:16:24.532Z,11.40
2017-05-26T02:18:51.541Z,11.40
2017-05-26T02:21:18.471Z,11.40
2017-05-26T02:23:45.504Z,11.30
2017-05-26T02:26:12.435Z,11.30
2017-05-26T02:28:39.361Z,11.20
2017-05-26T02:31:06.331Z,11.20
2017-05-26T02:33:33.325Z,11.20
2017-05-26T02:36:00.270Z,11.20
2017-05-26T02:38:27.226Z,11.20
2017-05-26T02:40:54.173Z,11.10
2017-05-26T02:43:21.169Z,11.00
2017-05-26T02:45:48.104Z,11.00
2017-05-26T02:48:15.028Z,11.00
2017-05-26T02:50:42.050Z,11.00
2017-05-26T02:53:09.009Z,11.10
2017-05-26T02:55:36.877Z,11.00
2017-05-26T02:58:03.878Z,11.00
2017-05-26T03:00:31.772Z,10.90
2017-05-26T03:02:58.712Z,10.70
2017-05-26T03:05:25.665Z,10.50
2017-05-26T03:07:52.603Z,10.40
2017-05-26T03:10:19.538Z,10.50
2017-05-26T03:12:46.493Z,10.50
2017-05-26T03:15:13.429Z,10.50
2017-05-26T03:17:40.377Z,10.60
2017-05-26T03:20:07.380Z,10.50
2017-05-26T03:22:34.308Z,10.40
2017-05-26T03:25:01.241Z,10.30
2017-05-26T03:27:28.180Z,10.30
2017-05-26T03:29:55.109Z,10.30
2017-05-26T03:32:22.084Z,10.30
2017-05-26T03:34:49.002Z,10.10
2017-05-26T03:37:15.928Z,10.10
2017-05-26T03:39:42.885Z,10.10
2017-05-26T03:42:09.812Z,10.10
2017-05-26T03:44:36.773Z,10.30
2017-05-26T03:47:03.736Z,10.40
2017-05-26T03:49:30.698Z,10.40
2017-05-26T03:51:57.632Z,10.40
2017-05-26T03:54:24.559Z,10.40
2017-05-26T03:56:51.745Z,10.20
2017-05-26T03:59:18.679Z,9.90
2017-05-26T04:01:46.804Z,9.90
2017-05-26T04:04:13.756Z,10.00
2017-05-26T04:06:40.670Z,10.20
2017-05-26T04:09:07.629Z,10.20
2017-05-26T04:11:34.572Z,10.20
2017-05-26T04:14:01.521Z,10.20
2017-05-26T04:16:28.513Z,10.40
2017-05-26T04:18:55.446Z,10.50
2017-05-26T04:21:22.373Z,10.60
2017-05-26T04:23:49.342Z,10.70
2017-05-26T04:26:16.296Z,10.90
2017-05-26T04:28:43.228Z,11.00
2017-05-26T04:31:10.259Z,11.10
2017-05-26T04:33:37.207Z,11.30
2017-05-26T04:36:04.140Z,11.60
2017-05-26T04:38:31.105Z,11.70
2017-05-26T04:40:58.032Z,12.00
2017-05-26T04:43:24.966Z,12.20
2017-05-26T04:45:51.936Z,12.40
2017-05-26T04:48:18.871Z,12.50
2017-05-26T04:50:45.823Z,12.70
2017-05-26T04:53:12.758Z,12.80
2017-05-26T04:55:39.733Z,12.90
2017-05-26T04:58:06.655Z,13.20
2017-05-26T05:00:33.614Z,13.30
2017-05-26T05:03:00.571Z,13.50
2017-05-26T05:05:27.575Z,13.60
2017-05-26T05:07:54.544Z,13.90
2017-05-26T05:10:21.474Z,14.00
2017-05-26T05:12:48.392Z,14.20
2017-05-26T05:15:15.343Z,14.30
2017-05-26T05:17:42.294Z,14.50
2017-05-26T05:20:09.325Z,14.60
2017-05-26T05:22:36.289Z,14.80
2017-05-26T05:25:03.241Z,15.00
2017-05-26T05:27:30.181Z,15.10
2017-05-26T05:29:57.231Z,15.40
2017-05-26T05:32:24.242Z,15.50
2017-05-26T05:34:51.180Z,15.60
2017-05-26T05:37:18.107Z,15.70
2017-05-26T05:39:45.070Z,16.00
2017-05-26T05:42:12.033Z,16.20
2017-05-26T05:44:39.001Z,16.30
2017-05-26T05:47:05.918Z,16.40
2017-05-26T05:49:32.866Z,16.40
2017-05-26T05:51:59.909Z,16.60
2017-05-26T05:54:26.844Z,16.60
2017-05-26T05:56:53.799Z,16.80
2017-05-26T05:59:20.758Z,16.80
2017-05-26T06:01:47.723Z,17.10
2017-05-26T06:04:14.686Z,17.20
2017-05-26T06:06:41.618Z,17.40
2017-05-26T06:09:08.555Z,17.50
2017-05-26T06:11:35.511Z,17.50
2017-05-26T06:14:02.464Z,17.80
2017-05-26T06:16:29.385Z,17.50
2017-05-26T06:18:56.361Z,17.60
2017-05-26T06:21:23.335Z,18.00
2017-05-26T06:23:50.252Z,18.20
2017-05-26T06:26:17.231Z,18.30
2017-05-26T06:28:44.239Z,18.60
2017-05-26T06:31:11.166Z,18.80
2017-05-26T06:33:38.097Z,18.80
2017-05-26T06:36:05.058Z,19.10
2017-05-26T06:38:31.983Z,19.20
2017-05-26T06:40:58.926Z,19.20
2017-05-26T06:43:25.902Z,19.40
2017-05-26T06:45:52.833Z,19.70
2017-05-26T06:48:19.792Z,20.00
2017-05-26T06:50:46.791Z,20.00
2017-05-26T06:53:13.734Z,20.50
2017-05-26T06:55:40.694Z,20.60
2017-05-26T06:58:07.657Z,20.40
2017-05-26T07:00:34.593Z,20.10
2017-05-26T07:03:01.620Z,20.60
2017-05-26T07:05:27.842Z,20.60
2017-05-26T07:07:54.803Z,21.50
2017-05-26T07:10:22.743Z,21.40
2017-05-26T07:12:49.741Z,21.70
2017-05-26T07:15:16.711Z,21.90
2017-05-26T07:17:43.694Z,21.90
2017-05-26T07:20:10.689Z,22.20
2017-05-26T07:22:37.652Z,22.20
2017-05-26T07:25:04.594Z,22.30
2017-05-26T07:27:30.830Z,22.30
2017-05-26T07:29:57.793Z,22.50
2017-05-26T07:32:24.723Z,22.70
2017-05-26T07:34:51.669Z,22.40
2017-05-26T07:37:18.650Z,22.50
2017-05-26T07:39:45.614Z,22.60
2017-05-26T07:42:12.564Z,23.00
2017-05-26T07:44:38.813Z,23.00
2017-05-26T07:47:05.751Z,23.70
2017-05-26T07:49:32.748Z,24.10
2017-05-26T07:51:59.716Z,24.60
2017-05-26T07:54:26.662Z,24.60
2017-05-26T07:56:53.662Z,24.90
2017-05-26T07:59:20.617Z,25.30
2017-05-26T08:01:47.554Z,25.60
2017-05-26T08:04:14.560Z,25.50
2017-05-26T08:06:41.530Z,25.10
2017-05-26T08:09:08.477Z,25.70
2017-05-26T08:11:35.456Z,26.00
2017-05-26T08:14:02.393Z,24.40
2017-05-26T08:16:29.341Z,24.60
2017-05-26T08:18:56.341Z,25.90
2017-05-26T08:21:23.295Z,26.70
2017-05-26T08:23:50.237Z,26.90
2017-05-26T08:26:17.276Z,26.90
2017-05-26T08:28:44.216Z,27.90
2017-05-26T08:31:11.153Z,28.10
2017-05-26T08:33:38.123Z,27.50
2017-05-26T08:36:05.105Z,26.80
2017-05-26T08:38:32.109Z,27.60
2017-05-26T08:40:59.045Z,27.20
2017-05-26T08:43:25.265Z,27.10
2017-05-26T08:45:52.244Z,27.20
2017-05-26T08:48:19.181Z,27.90
2017-05-26T08:50:46.162Z,28.00
2017-05-26T08:53:13.112Z,28.80
2017-05-26T08:55:40.064Z,28.60
2017-05-26T08:58:07.023Z,28.50
2017-05-26T09:00:33.981Z,29.10
2017-05-26T09:03:00.937Z,29.10
2017-05-26T09:05:27.943Z,29.50
2017-05-26T09:07:54.881Z,29.50
2017-05-26T09:10:21.837Z,29.20
2017-05-26T09:12:48.826Z,30.10
2017-05-26T09:15:15.756Z,30.30
2017-05-26T09:17:42.692Z,29.80
2017-05-26T09:20:09.682Z,28.90
2017-05-26T09:22:36.619Z,29.80
2017-05-26T09:25:03.555Z,29.80
2017-05-26T09:27:30.537Z,30.10
2017-05-26T09:29:57.477Z,30.00
2017-05-26T09:32:24.463Z,27.90
2017-05-26T09:34:51.436Z,29.40
2017-05-26T09:37:18.386Z,30.20
2017-05-26T09:39:45.330Z,31.00
2017-05-26T09:42:12.317Z,31.60
2017-05-26T09:44:39.265Z,29.80
2017-05-26T09:47:06.189Z,29.40
2017-05-26T09:49:33.164Z,29.10
2017-05-26T09:51:59.360Z,29.10
2017-05-26T09:54:26.346Z,29.70
2017-05-26T09:56:52.557Z,29.70
2017-05-26T09:59:19.542Z,29.90
2017-05-26T10:01:46.559Z,30.40
2017-05-26T10:04:13.492Z,29.40
2017-05-26T10:06:40.620Z,30.10
2017-05-26T10:09:07.596Z,30.90
2017-05-26T10:11:34.507Z,30.20
2017-05-26T10:14:01.451Z,30.70
2017-05-26T10:16:28.680Z,30.70
2017-05-26T10:18:55.613Z,30.70
2017-05-26T10:21:22.596Z,30.80
2017-05-26T10:23:49.537Z,30.10
2017-05-26T10:26:16.468Z,30.40
2017-05-26T10:28:43.413Z,30.80
2017-05-26T10:31:10.376Z,30.10
2017-05-26T10:33:36.561Z,30.10
2017-05-26T10:36:03.472Z,31.30
2017-05-26T10:38:30.429Z,31.90
2017-05-26T10:40:57.353Z,32.20
2017-05-26T10:43:24.321Z,31.40
2017-05-26T10:45:51.282Z,31.20
2017-05-26T10:48:18.219Z,31.10
2017-05-26T10:50:45.153Z,29.20
2017-05-26T10:53:12.130Z,29.30
2017-05-26T10:55:39.045Z,29.80
2017-05-26T10:58:05.972Z,29.50
2017-05-26T11:00:33.004Z,28.90
2017-05-26T11:02:59.954Z,29.80
2017-05-26T11:05:26.893Z,29.90
2017-05-26T11:07:53.884Z,30.00
2017-05-26T11:10:20.812Z,29.50
2017-05-26T11:12:47.728Z,28.70
2017-05-26T11:15:14.725Z,27.70
2017-05-26T11:17:41.709Z,28.10
2017-05-26T11:20:08.672Z,28.60
2017-05-26T11:22:35.597Z,28.70
2017-05-26T11:25:02.517Z,28.60
2017-05-26T11:27:29.447Z,28.30
2017-05-26T11:29:56.368Z,28.00
2017-05-26T11:32:23.317Z,26.70
2017-05-26T11:34:50.277Z,26.50
2017-05-26T11:37:17.200Z,25.00
2017-05-26T11:39:44.116Z,24.90
2017-05-26T11:42:11.060Z,25.20
2017-05-26T11:44:38.026Z,25.80
2017-05-26T11:47:04.964Z,25.90
2017-05-26T11:49:31.936Z,25.30
2017-05-26T11:51:58.863Z,24.50
2017-05-26T11:54:25.797Z,24.60
2017-05-26T11:56:52.765Z,25.10
2017-05-26T11:59:19.685Z,25.40
2017-05-26T12:01:46.613Z,25.40
2017-05-26T12:04:14.299Z,25.50
2017-05-26T12:06:41.222Z,25.50
2017-05-26T12:09:08.204Z,25.30
2017-05-26T12:11:35.160Z,25.10
2017-05-26T12:14:02.080Z,25.10
2017-05-26T12:16:29.033Z,25.20
2017-05-26T12:18:55.960Z,24.90
2017-05-26T12:21:22.904Z,25.20
2017-05-26T12:23:49.848Z,25.20
2017-05-26T12:26:16.764Z,25.20
2017-05-26T12:28:43.737Z,25.10
2017-05-26T12:31:10.669Z,24.90
2017-05-26T12:33:37.656Z,25.00
2017-05-26T12:36:04.591Z,25.00
2017-05-26T12:38:31.534Z,24.90
2017-05-26T12:40:58.455Z,24.90
2017-05-26T12:43:25.386Z,24.40
2017-05-26T12:45:52.370Z,24.40
2017-05-26T12:48:19.277Z,24.40
2017-05-26T12:50:46.196Z,24.20
2017-05-26T12:53:13.152Z,24.20
2017-05-26T12:55:40.084Z,24.10
2017-05-26T12:58:07.084Z,24.30
2017-05-26T13:00:34.081Z,24.20
2017-05-26T13:03:01.009Z,24.10
2017-05-26T13:05:27.972Z,24.10
2017-05-26T13:07:54.969Z,24.20
2017-05-26T13:10:21.908Z,24.30
2017-05-26T13:12:49.148Z,24.40
2017-05-26T13:15:16.088Z,24.40
2017-05-26T13:17:43.017Z,24.50
2017-05-26T13:20:09.977Z,24.20
2017-05-26T13:22:36.895Z,24.10
2017-05-26T13:25:03.816Z,24.00
2017-05-26T13:27:30.764Z,23.70
2017-05-26T13:29:57.737Z,23.80
2017-05-26T13:32:24.655Z,23.80
2017-05-26T13:34:51.620Z,23.90
2017-05-26T13:37:18.540Z,23.80
2017-05-26T13:39:45.461Z,23.90
2017-05-26T13:42:12.443Z,23.90
2017-05-26T13:44:39.376Z,23.80
2017-05-26T13:47:06.295Z,23.90
2017-05-26T13:49:33.264Z,23.90
2017-05-26T13:52:00.227Z,23.80
2017-05-26T13:54:27.164Z,23.80
2017-05-26T13:56:54.110Z,23.60
2017-05-26T13:59:21.031Z,23.60
2017-05-26T14:01:47.948Z,23.40
2017-05-26T14:04:14.885Z,23.60
2017-05-26T14:06:41.797Z,23.60
2017-05-26T14:09:08.728Z,23.50
2017-05-26T14:11:35.690Z,23.30
2017-05-26T14:14:02.665Z,23.30
2017-05-26T14:16:29.578Z,23.10
2017-05-26T14:18:56.497Z,23.20
2017-05-26T14:21:23.499Z,23.30
2017-05-26T14:23:50.429Z,23.40
2017-05-26T14:26:17.365Z,23.40
2017-05-26T14:28:44.312Z,23.30
2017-05-26T14:31:11.250Z,23.30
2017-05-26T14:33:38.171Z,23.40
2017-05-26T14:36:05.455Z,23.40
2017-05-26T14:38:32.366Z,23.30
2017-05-26T14:40:59.281Z,23.30
2017-05-26T14:43:26.239Z,23.40
2017-05-26T14:45:53.152Z,23.40
2017-05-26T14:48:20.068Z,23.40
2017-05-26T14:50:47.018Z,23.30
2017-05-26T14:53:13.947Z,23.30
2017-05-26T14:55:40.876Z,23.20
2017-05-26T14:58:07.830Z,23.30
2017-05-26T15:00:34.788Z,23.40
2017-05-26T15:03:01.719Z,23.30
2017-05-26T15:05:28.696Z,23.10
2017-05-26T15:07:55.621Z,23.00
2017-05-26T15:10:22.543Z,23.10
2017-05-26T15:12:49.508Z,23.00
2017-05-26T15:15:16.445Z,23.00
2017-05-26T15:17:43.357Z,23.00
2017-05-26T15:20:10.300Z,22.90
2017-05-26T15:22:37.236Z,22.80
2017-05-26T15:25:04.192Z,23.00
2017-05-26T15:27:31.115Z,23.10
2017-05-26T15:29:58.029Z,23.20
2017-05-26T15:32:25.008Z,23.10
2017-05-26T15:34:51.924Z,23.10
2017-05-26T15:37:18.851Z,23.00
2017-05-26T15:39:45.795Z,23.00
2017-05-26T15:42:12.719Z,23.10
2017-05-26T15:44:39.631Z,23.10
2017-05-26T15:47:06.581Z,23.00
2017-05-26T15:49:33.506Z,23.00
2017-05-26T15:52:00.416Z,22.90
2017-05-26T15:54:27.360Z,22.90
2017-05-26T15:56:54.349Z,22.90
2017-05-26T15:59:21.288Z,23.00
2017-05-26T16:01:48.293Z,23.00
2017-05-26T16:04:15.226Z,22.80
2017-05-26T16:06:42.161Z,22.90
2017-05-26T16:09:09.124Z,22.90
2017-05-26T16:11:36.068Z,22.80
2017-05-26T16:14:02.988Z,22.90
2017-05-26T16:16:30.058Z,22.90
2017-05-26T16:18:56.991Z,23.00
2017-05-26T16:21:23.912Z,23.00
2017-05-26T16:23:50.878Z,23.00
2017-05-26T16:26:17.832Z,23.00
2017-05-26T16:28:44.777Z,22.80
2017-05-26T16:31:11.808Z,22.80
2017-05-26T16:33:38.735Z,22.90
2017-05-26T16:36:05.636Z,22.80
2017-05-26T16:38:32.637Z,22.70
2017-05-26T16:40:59.580Z,22.80
2017-05-26T16:43:26.892Z,22.80
2017-05-26T16:45:53.860Z,22.90
2017-05-26T16:48:20.785Z,22.90
2017-05-26T16:50:47.697Z,22.90
2017-05-26T16:53:14.642Z,22.90
2017-05-26T16:55:41.604Z,22.90
2017-05-26T16:58:08.528Z,22.80
2017-05-26T17:00:35.484Z,22.70
2017-05-26T17:03:02.700Z,22.60
2017-05-26T17:05:29.681Z,22.50
2017-05-26T17:07:56.605Z,22.60
2017-05-26T17:10:23.603Z,22.70
2017-05-26T17:12:50.512Z,22.70
2017-05-26T17:15:17.438Z,22.60
2017-05-26T17:17:44.408Z,22.60
2017-05-26T17:20:11.349Z,22.60
2017-05-26T17:22:38.289Z,22.50
2017-05-26T17:25:05.256Z,22.40
2017-05-26T17:27:32.219Z,22.30
2017-05-26T17:29:59.189Z,22.20
2017-05-26T17:32:26.127Z,22.20
2017-05-26T17:34:53.064Z,22.20
2017-05-26T17:37:20.036Z,22.20
2017-05-26T17:39:46.953Z,22.30
2017-05-26T17:42:13.889Z,22.20
2017-05-26T17:44:40.828Z,22.20
2017-05-26T17:47:07.741Z,22.10
2017-05-26T17:49:34.704Z,22.00
2017-05-26T17:52:01.718Z,22.00
2017-05-26T17:54:28.637Z,21.90
2017-05-26T17:56:55.641Z,21.90
2017-05-26T17:59:22.557Z,21.90
2017-05-26T18:01:49.566Z,21.80
2017-05-26T18:04:16.516Z,21.80
2017-05-26T18:06:43.445Z,21.70
2017-05-26T18:09:10.448Z,21.70
2017-05-26T18:11:37.393Z,21.60
2017-05-26T18:14:04.333Z,21.60
2017-05-26T18:16:31.264Z,21.50
2017-05-26T18:18:58.204Z,21.60
2017-05-26T18:21:25.128Z,21.40
2017-05-26T18:23:52.059Z,21.30
2017-05-26T18:26:19.041Z,21.30
2017-05-26T18:28:45.963Z,21.10
2017-05-26T18:31:12.941Z,21.10
2017-05-26T18:33:39.872Z,21.10
2017-05-26T18:36:06.805Z,21.10
2017-05-26T18:38:33.759Z,21.00
2017-05-26T18:41:00.689Z,20.90
2017-05-26T18:43:27.608Z,20.80
2017-05-26T18:45:54.553Z,20.60
2017-05-26T18:48:21.480Z,20.50
2017-05-26T18:50:48.399Z,20.50
2017-05-26T18:53:15.354Z,20.50
2017-05-26T18:55:42.384Z,20.30
2017-05-26T18:58:09.329Z,20.30
2017-05-26T19:00:36.289Z,20.20
2017-05-26T19:03:03.204Z,20.10
2017-05-26T19:05:30.179Z,20.00
2017-05-26T19:07:57.113Z,20.00
2017-05-26T19:10:24.027Z,19.90
2017-05-26T19:12:50.973Z,19.90
2017-05-26T19:15:17.912Z,19.70
2017-05-26T19:17:44.829Z,19.70
2017-05-26T19:20:11.788Z,19.60
2017-05-26T19:22:38.706Z,19.50
2017-05-26T19:25:05.644Z,19.40
2017-05-26T19:27:32.606Z,19.40
2017-05-26T19:29:59.517Z,19.30
2017-05-26T19:32:26.441Z,19.30
2017-05-26T19:34:53.389Z,19.20
2017-05-26T19:37:20.332Z,19.20
2017-05-26T19:39:47.253Z,19.10
2017-05-26T19:42:14.209Z,19.10
2017-05-26T19:44:41.200Z,19.20
2017-05-26T19:47:08.128Z,19.00
2017-05-26T19:49:35.069Z,18.90
2017-05-26T19:52:02.000Z,18.90
2017-05-26T19:54:28.971Z,19.00
2017-05-26T19:56:55.907Z,18.90
2017-05-26T19:59:22.850Z,18.80
2017-05-26T20:01:49.806Z,18.80
2017-05-26T20:04:16.726Z,18.70
2017-05-26T20:06:43.680Z,18.70
2017-05-26T20:09:10.641Z,18.70
2017-05-26T20:11:37.562Z,18.60
2017-05-26T20:14:04.479Z,18.50
2017-05-26T20:16:31.441Z,18.50
2017-05-26T20:18:58.381Z,18.50
2017-05-26T20:21:25.338Z,18.40
2017-05-26T20:23:52.299Z,18.40
2017-05-26T20:26:19.204Z,18.40
2017-05-26T20:28:46.117Z,18.40
2017-05-26T20:31:13.085Z,18.30
2017-05-26T20:33:40.017Z,18.20
2017-05-26T20:36:06.932Z,18.20
2017-05-26T20:38:33.896Z,18.20
2017-05-26T20:41:00.835Z,18.10
2017-05-26T20:43:27.760Z,18.00
2017-05-26T20:45:54.733Z,18.00
2017-05-26T20:48:21.695Z,18.00
2017-05-26T20:50:48.608Z,17.90
2017-05-26T20:53:16.324Z,17.90
2017-05-26T20:55:43.251Z,17.80
2017-05-26T20:58:10.288Z,17.70
2017-05-26T21:00:37.192Z,17.70
2017-05-26T21:03:04.124Z,17.80
2017-05-26T21:05:31.091Z,17.80
2017-05-26T21:07:58.035Z,17.80
2017-05-26T21:10:24.981Z,17.80
2017-05-26T21:12:51.958Z,17.90
2017-05-26T21:15:18.879Z,17.90
2017-05-26T21:17:45.909Z,17.90
2017-05-26T21:20:12.876Z,18.00
2017-05-26T21:22:39.793Z,17.70
2017-05-26T21:25:06.724Z,17.60
2017-05-26T21:27:33.720Z,17.40
2017-05-26T21:30:00.667Z,17.40
2017-05-26T21:32:27.617Z,17.20
2017-05-26T21:34:54.612Z,17.20
2017-05-26T21:37:21.515Z,17.10
2017-05-26T21:39:48.427Z,17.10
2017-05-26T21:42:15.384Z,17.00
2017-05-26T21:44:42.349Z,17.00
2017-05-26T21:47:09.297Z,17.10
2017-05-26T21:49:36.579Z,17.10
2017-05-26T21:52:03.510Z,17.10
2017-05-26T21:54:30.443Z,17.10
2017-05-26T21:56:57.388Z,17.00
2017-05-26T21:59:24.319Z,16.80
2017-05-26T22:01:51.423Z,16.80
2017-05-26T22:04:18.347Z,16.80
2017-05-26T22:06:45.311Z,16.80
2017-05-26T22:09:12.265Z,16.80
2017-05-26T22:11:39.197Z,16.70
2017-05-26T22:14:06.286Z,16.60
2017-05-26T22:16:33.237Z,16.60
2017-05-26T22:19:00.163Z,16.60
2017-05-26T22:21:27.127Z,16.50
2017-05-26T22:23:54.044Z,16.30
2017-05-26T22:26:20.964Z,16.20
2017-05-26T22:28:47.903Z,16.10
2017-05-26T22:31:14.841Z,16.10
2017-05-26T22:33:41.796Z,16.30
2017-05-26T22:36:08.712Z,16.40
2017-05-26T22:38:35.631Z,16.40
2017-05-26T22:41:02.577Z,16.40
2017-05-26T22:43:29.504Z,16.30
2017-05-26T22:45:56.504Z,16.10
2017-05-26T22:48:23.453Z,16.10
2017-05-26T22:50:50.365Z,16.20
2017-05-26T22:53:17.300Z,16.30
2017-05-26T22:55:44.268Z,16.30
2017-05-26T22:58:11.189Z,16.10
2017-05-26T23:00:38.104Z,16.10
2017-05-26T23:03:05.056Z,16.10
2017-05-26T23:05:31.980Z,16.10
2017-05-26T23:07:58.916Z,16.10
2017-05-26T23:10:25.920Z,16.00
2017-05-26T23:12:52.849Z,15.90
2017-05-26T23:15:19.768Z,15.70
2017-05-26T23:17:46.727Z,15.70
2017-05-26T23:20:13.653Z,15.70
2017-05-26T23:22:40.692Z,15.70
2017-05-26T23:25:07.640Z,15.80
2017-05-26T23:27:34.592Z,15.80
2017-05-26T23:30:01.509Z,15.90
2017-05-26T23:32:28.484Z,15.90
2017-05-26T23:34:55.460Z,15.80
2017-05-26T23:37:22.416Z,15.80
2017-05-26T23:39:49.339Z,15.80
2017-05-26T23:42:16.277Z,15.70
2017-05-26T23:44:43.227Z,15.70
2017-05-26T23:47:10.144Z,15.80
2017-05-26T23:49:37.058Z,15.80
2017-05-26T23:52:04.011Z,15.80
2017-05-26T23:54:30.935Z,15.70
2017-05-26T23:56:57.856Z,15.90
2017-05-26T23:59:24.820Z,16.00
